Time;durP1;ratioP1;P1;durP2;ratioP2;P2;SDS_P1;SDS_P2;PMS_P1;PMS_P2;Temp;Humidity;BMP_temperature;BMP_pressure;BME280_temperature;BME280_humidity;BME280_pressure;Samples;Min_cycle;Max_cycle;Signal;HPM_P1;HPM_P2
2023/12/18 00:01:27;;;;;;;4.80;3.95;;;;;;;;;;10026953;28;20066;-69
2023/12/18 00:06:19;;;;;;;6.28;4.60;;;;;;;;;;10026569;28;20136;-70
2023/12/18 00:11:11;;;;;;;7.68;4.70;;;;;;;;;;10026616;28;20052;-70
2023/12/18 00:16:03;;;;;;;7.95;7.18;;;;;;;;;;10025335;28;20092;-70
2023/12/18 00:20:56;;;;;;;6.88;4.95;;;;;;;;;;10026897;28;20539;-70
2023/12/18 00:25:48;;;;;;;6.22;5.07;;;;;;;;;;10025626;28;20050;-70
2023/12/18 00:30:40;;;;;;;4.72;4.32;;;;;;;;;;10026010;28;20050;-70
2023/12/18 00:35:32;;;;;;;6.75;6.05;;;;;;;;;;10025111;28;20152;-70
2023/12/18 00:40:23;;;;;;;7.72;6.40;;;;;;;;;;10024987;28;20354;-69
2023/12/18 00:45:16;;;;;;;9.02;7.68;;;;;;;;;;10025932;28;20060;-70
2023/12/18 00:50:09;;;;;;;9.68;7.93;;;;;;;;;;10025195;28;20362;-70
2023/12/18 00:55:02;;;;;;;10.75;7.75;;;;;;;;;;10024710;28;20081;-70
2023/12/18 00:59:54;;;;;;;6.00;5.50;;;;;;;;;;10025144;28;20046;-70
2023/12/18 01:04:46;;;;;;;6.57;5.05;;;;;;;;;;10024808;28;20384;-70
2023/12/18 01:09:38;;;;;;;6.97;5.53;;;;;;;;;;10024568;28;20041;-70
2023/12/18 01:14:30;;;;;;;6.43;5.13;;;;;;;;;;10024431;28;20416;-70
2023/12/18 01:19:21;;;;;;;7.30;5.15;;;;;;;;;;10024767;28;20495;-70
2023/12/18 01:24:14;;;;;;;5.50;4.15;;;;;;;;;;10025084;28;20057;-70
2023/12/18 01:29:05;;;;;;;6.97;5.28;;;;;;;;;;10007069;28;20109;-70
2023/12/18 01:33:58;;;;;;;5.45;4.95;;;;;;;;;;9988339;28;20137;-71
2023/12/18 01:38:50;;;;;;;5.00;4.50;;;;;;;;;;9996947;28;20046;-70
2023/12/18 01:43:42;;;;;;;5.57;4.88;;;;;;;;;;9987227;28;20058;-70
2023/12/18 01:48:34;;;;;;;5.35;4.85;;;;;;;;;;9990799;28;20034;-70
2023/12/18 01:53:31;;;;;;;7.35;5.80;;;;;;;;;;9987427;28;20050;-70
2023/12/18 01:58:24;;;;;;;8.90;5.25;;;;;;;;;;9992141;28;20092;-70
2023/12/18 02:03:16;;;;;;;8.35;6.35;;;;;;;;;;10002598;28;20050;-70
2023/12/18 02:08:08;;;;;;;5.10;4.60;;;;;;;;;;10007464;28;20141;-70
2023/12/18 02:13:01;;;;;;;6.03;5.43;;;;;;;;;;9998803;28;20343;-70
2023/12/18 02:17:52;;;;;;;6.20;5.60;;;;;;;;;;9995003;28;20050;-70
2023/12/18 02:22:47;;;;;;;6.07;5.38;;;;;;;;;;9994285;28;20043;-70
2023/12/18 02:27:39;;;;;;;5.82;5.05;;;;;;;;;;9999888;28;20100;-70
2023/12/18 02:32:31;;;;;;;5.32;4.07;;;;;;;;;;10011117;28;20046;-70
2023/12/18 02:37:24;;;;;;;5.05;4.55;;;;;;;;;;10004014;28;20049;-70
2023/12/18 02:42:16;;;;;;;6.00;4.28;;;;;;;;;;9993413;28;20070;-70
2023/12/18 02:47:08;;;;;;;6.05;4.57;;;;;;;;;;9992971;28;20895;-70
2023/12/18 02:52:00;;;;;;;4.82;4.28;;;;;;;;;;9993443;28;20063;-70
2023/12/18 02:56:51;;;;;;;4.47;3.63;;;;;;;;;;9992399;28;20062;-70
2023/12/18 03:01:43;;;;;;;4.47;4.00;;;;;;;;;;9992214;28;20355;-70
2023/12/18 03:06:35;;;;;;;6.13;4.00;;;;;;;;;;9992836;28;20058;-70
2023/12/18 03:11:27;;;;;;;7.85;4.32;;;;;;;;;;9990658;28;20070;-71
2023/12/18 03:16:19;;;;;;;4.43;3.63;;;;;;;;;;10009109;28;20416;-70
2023/12/18 03:21:11;;;;;;;5.65;4.25;;;;;;;;;;9991765;28;20049;-70
2023/12/18 03:26:03;;;;;;;5.45;3.17;;;;;;;;;;9991986;28;20066;-70
2023/12/18 03:30:55;;;;;;;4.68;3.75;;;;;;;;;;9999507;28;20050;-70
2023/12/18 03:35:47;;;;;;;6.28;2.60;;;;;;;;;;10000979;28;20104;-70
2023/12/18 03:40:38;;;;;;;3.30;3.05;;;;;;;;;;9992102;28;20054;-70
2023/12/18 03:45:30;;;;;;;3.28;2.97;;;;;;;;;;9991602;28;20528;-70
2023/12/18 03:50:22;;;;;;;4.03;3.10;;;;;;;;;;9991122;28;20046;-70
2023/12/18 03:55:14;;;;;;;4.20;3.45;;;;;;;;;;9990909;28;20054;-70
2023/12/18 04:00:06;;;;;;;2.40;2.20;;;;;;;;;;9988739;28;20494;-70
2023/12/18 04:05:03;;;;;;;2.53;2.28;;;;;;;;;;9991114;28;20409;-70
2023/12/18 04:09:55;;;;;;;2.70;2.50;;;;;;;;;;9998466;28;20076;-70
2023/12/18 04:14:47;;;;;;;2.50;2.30;;;;;;;;;;9988632;28;20057;-70
2023/12/18 04:19:38;;;;;;;2.53;2.33;;;;;;;;;;9989113;28;20736;-70
2023/12/18 04:24:30;;;;;;;2.25;2.10;;;;;;;;;;9990522;28;20049;-71
2023/12/18 04:29:22;;;;;;;2.40;2.20;;;;;;;;;;9989011;28;20423;-70
2023/12/18 04:34:14;;;;;;;1.90;1.80;;;;;;;;;;9996904;28;20081;-70
2023/12/18 04:39:06;;;;;;;2.08;1.98;;;;;;;;;;9988548;28;20045;-70
2023/12/18 04:43:59;;;;;;;2.38;2.25;;;;;;;;;;9989038;28;20359;-70
2023/12/18 04:48:50;;;;;;;2.97;2.78;;;;;;;;;;9987805;28;20042;-71
2023/12/18 04:53:42;;;;;;;3.17;2.88;;;;;;;;;;9990521;28;20081;-70
2023/12/18 04:58:35;;;;;;;4.75;4.07;;;;;;;;;;9992245;28;20465;-70
2023/12/18 05:03:28;;;;;;;4.47;3.75;;;;;;;;;;9987523;28;20108;-70
2023/12/18 05:08:20;;;;;;;7.30;5.07;;;;;;;;;;9987416;28;20057;-70
2023/12/18 05:13:12;;;;;;;6.90;4.40;;;;;;;;;;9989101;28;20042;-71
2023/12/18 05:18:05;;;;;;;4.72;4.32;;;;;;;;;;9987240;28;20500;-70
2023/12/18 05:22:57;;;;;;;7.35;5.38;;;;;;;;;;9996203;28;20100;-70
2023/12/18 05:27:49;;;;;;;6.25;5.55;;;;;;;;;;9990509;28;20054;-70
2023/12/18 05:32:41;;;;;;;10.68;8.02;;;;;;;;;;9988921;28;20093;-70
2023/12/18 05:37:33;;;;;;;11.93;9.30;;;;;;;;;;9987644;28;20073;-70
2023/12/18 05:42:25;;;;;;;13.43;8.43;;;;;;;;;;9991854;28;20054;-70
2023/12/18 05:47:17;;;;;;;9.65;8.65;;;;;;;;;;10008764;28;20053;-71
2023/12/18 05:52:09;;;;;;;13.95;11.05;;;;;;;;;;9995831;28;20046;-70
2023/12/18 05:57:01;;;;;;;13.88;12.07;;;;;;;;;;9996720;28;20078;-70
2023/12/18 06:01:53;;;;;;;20.65;15.63;;;;;;;;;;9998065;28;20038;-70
2023/12/18 06:06:45;;;;;;;27.42;22.67;;;;;;;;;;10002722;28;20123;-70
2023/12/18 06:11:37;;;;;;;31.73;25.30;;;;;;;;;;9994093;28;20065;-71
2023/12/18 06:16:29;;;;;;;30.10;24.35;;;;;;;;;;9992880;28;20054;-70
2023/12/18 06:21:21;;;;;;;37.92;30.00;;;;;;;;;;9999552;28;20046;-70
2023/12/18 06:26:13;;;;;;;27.23;20.17;;;;;;;;;;10020104;28;20056;-70
2023/12/18 06:31:05;;;;;;;24.88;21.13;;;;;;;;;;10026511;28;20121;-71
2023/12/18 06:35:57;;;;;;;34.45;23.55;;;;;;;;;;10026333;28;20050;-70
2023/12/18 06:40:49;;;;;;;29.70;22.17;;;;;;;;;;10028430;28;20310;-71
2023/12/18 06:45:41;;;;;;;27.52;19.30;;;;;;;;;;10030214;28;20053;-70
2023/12/18 06:50:33;;;;;;;24.60;18.33;;;;;;;;;;10028941;28;20054;-70
2023/12/18 06:55:25;;;;;;;27.17;21.45;;;;;;;;;;10029910;28;20081;-71
2023/12/18 07:00:17;;;;;;;25.58;19.08;;;;;;;;;;10027216;28;20416;-70
2023/12/18 07:05:11;;;;;;;22.10;18.33;;;;;;;;;;10028769;28;20103;-70
2023/12/18 07:10:03;;;;;;;26.67;21.50;;;;;;;;;;10027434;28;20077;-71
2023/12/18 07:14:55;;;;;;;25.92;20.52;;;;;;;;;;10027986;28;20144;-70
2023/12/18 07:19:47;;;;;;;26.35;18.67;;;;;;;;;;10028432;28;20046;-70
2023/12/18 07:24:39;;;;;;;23.83;20.02;;;;;;;;;;10027997;28;20500;-71
2023/12/18 07:29:31;;;;;;;24.92;20.02;;;;;;;;;;10026416;28;20350;-71
2023/12/18 07:34:23;;;;;;;23.17;18.70;;;;;;;;;;10026463;28;20377;-70
2023/12/18 07:39:15;;;;;;;35.58;24.75;;;;;;;;;;10027276;28;20088;-70
2023/12/18 07:44:07;;;;;;;33.75;23.15;;;;;;;;;;10026979;28;20060;-70
2023/12/18 07:48:59;;;;;;;16.95;14.13;;;;;;;;;;10027179;28;20050;-70
2023/12/18 07:53:51;;;;;;;16.95;14.00;;;;;;;;;;10026366;28;20080;-72
2023/12/18 07:58:42;;;;;;;28.20;19.35;;;;;;;;;;10024893;28;20489;-72
2023/12/18 08:03:34;;;;;;;29.73;21.23;;;;;;;;;;9988926;28;20042;-71
2023/12/18 08:08:27;;;;;;;29.33;20.55;;;;;;;;;;9988989;28;20109;-71
2023/12/18 08:13:18;;;;;;;17.75;13.18;;;;;;;;;;9988326;28;20050;-71
2023/12/18 08:18:12;;;;;;;10.35;8.38;;;;;;;;;;9993035;28;20501;-71
2023/12/18 08:23:04;;;;;;;68.18;36.08;;;;;;;;;;9993082;28;20057;-71
2023/12/18 08:27:55;;;;;;;61.95;37.35;;;;;;;;;;9989502;28;20034;-71
2023/12/18 08:32:47;;;;;;;16.50;13.05;;;;;;;;;;9988423;28;20416;-70
2023/12/18 08:37:40;;;;;;;8.27;7.07;;;;;;;;;;9988488;28;20081;-71
2023/12/18 08:42:32;;;;;;;7.32;6.15;;;;;;;;;;9988019;28;21327;-71
2023/12/18 08:47:24;;;;;;;10.45;8.00;;;;;;;;;;10001384;28;20056;-71
2023/12/18 08:52:16;;;;;;;15.40;13.40;;;;;;;;;;9987860;28;20042;-71
2023/12/18 08:57:07;;;;;;;18.25;13.52;;;;;;;;;;9993678;28;20487;-71
2023/12/18 09:01:59;;;;;;;16.80;12.55;;;;;;;;;;9988221;28;20056;-71
2023/12/18 09:06:51;;;;;;;17.60;13.25;;;;;;;;;;10008172;28;20096;-71
2023/12/18 09:11:43;;;;;;;14.40;11.18;;;;;;;;;;9987444;28;20051;-71
2023/12/18 09:16:35;;;;;;;16.17;12.43;;;;;;;;;;9991424;28;20125;-71
2023/12/18 09:21:29;;;;;;;15.18;10.15;;;;;;;;;;10015847;28;20045;-71
2023/12/18 09:26:21;;;;;;;20.90;11.57;;;;;;;;;;9994646;28;20130;-71
2023/12/18 09:31:15;;;;;;;12.60;8.75;;;;;;;;;;10007268;28;20066;-71
2023/12/18 09:36:07;;;;;;;15.23;11.77;;;;;;;;;;9994828;28;20038;-71
2023/12/18 09:40:59;;;;;;;19.60;14.15;;;;;;;;;;9993771;28;20108;-71
2023/12/18 09:45:52;;;;;;;17.90;13.50;;;;;;;;;;9994739;28;20074;-71
2023/12/18 09:50:44;;;;;;;25.17;14.40;;;;;;;;;;10007773;28;20050;-71
2023/12/18 09:55:36;;;;;;;18.52;14.45;;;;;;;;;;9994649;28;20104;-71
2023/12/18 10:00:28;;;;;;;17.48;14.25;;;;;;;;;;9993757;28;20417;-71
2023/12/18 10:05:20;;;;;;;19.75;13.75;;;;;;;;;;9993480;28;20050;-71
2023/12/18 10:10:12;;;;;;;19.63;12.52;;;;;;;;;;9993398;28;20100;-71
2023/12/18 10:15:07;;;;;;;18.95;13.48;;;;;;;;;;9993252;28;20042;-71
2023/12/18 10:20:02;;;;;;;18.65;13.25;;;;;;;;;;9992850;28;20129;-71
2023/12/18 10:25:07;;;;;;;17.42;11.52;;;;;;;;;;9993221;28;20208;-71
2023/12/18 10:30:00;;;;;;;16.50;11.57;;;;;;;;;;9996364;28;20077;-71
2023/12/18 10:34:52;;;;;;;19.58;12.75;;;;;;;;;;9992714;28;20465;-71
2023/12/18 10:39:45;;;;;;;24.25;10.85;;;;;;;;;;9991979;28;20279;-71
2023/12/18 10:44:39;;;;;;;14.68;12.48;;;;;;;;;;10007494;28;20141;-72
2023/12/18 10:49:32;;;;;;;12.18;9.43;;;;;;;;;;10006320;28;20046;-71
2023/12/18 10:54:24;;;;;;;16.90;12.20;;;;;;;;;;10006450;28;20523;-71
2023/12/18 10:59:17;;;;;;;16.30;12.55;;;;;;;;;;10016870;28;20058;-71
2023/12/18 11:04:12;;;;;;;19.58;12.73;;;;;;;;;;10006070;28;20145;-70
2023/12/18 11:09:05;;;;;;;18.27;13.05;;;;;;;;;;10015854;28;20060;-71
2023/12/18 11:14:22;;;;;;;19.58;13.18;;;;;;;;;;9992912;28;20469;-71
2023/12/18 11:19:45;;;;;;;21.30;13.73;;;;;;;;;;10010460;28;20092;-70
2023/12/18 11:24:38;;;;;;;21.27;14.40;;;;;;;;;;9990332;28;20070;-71
2023/12/18 11:29:45;;;;;;;19.88;14.90;;;;;;;;;;10002045;28;20440;-70
2023/12/18 11:34:39;;;;;;;19.70;13.35;;;;;;;;;;9989335;28;20129;-71
2023/12/18 11:39:41;;;;;;;23.63;14.18;;;;;;;;;;10005616;28;20470;-70
2023/12/18 11:44:37;;;;;;;20.52;13.77;;;;;;;;;;9990382;28;20557;-70
2023/12/18 11:49:30;;;;;;;17.48;13.35;;;;;;;;;;9990211;28;20050;-71
2023/12/18 11:54:25;;;;;;;21.85;14.20;;;;;;;;;;9999228;28;20042;-70
2023/12/18 11:59:18;;;;;;;20.70;15.77;;;;;;;;;;9992862;28;20080;-70
2023/12/18 12:04:12;;;;;;;18.92;13.38;;;;;;;;;;9998379;28;20050;-71
2023/12/18 12:09:06;;;;;;;16.05;12.45;;;;;;;;;;10021539;28;20061;-70
2023/12/18 12:13:58;;;;;;;29.05;20.10;;;;;;;;;;9997536;28;20427;-71
2023/12/18 12:18:50;;;;;;;15.05;12.15;;;;;;;;;;9987632;28;20085;-71
2023/12/18 12:23:47;;;;;;;18.33;13.93;;;;;;;;;;9997106;28;20050;-71
2023/12/18 12:28:41;;;;;;;15.75;12.45;;;;;;;;;;9992137;28;20470;-71
2023/12/18 12:33:43;;;;;;;20.35;12.98;;;;;;;;;;9987998;28;20466;-71
2023/12/18 12:38:44;;;;;;;16.02;11.68;;;;;;;;;;10003067;28;20042;-71
2023/12/18 12:43:36;;;;;;;16.17;11.73;;;;;;;;;;9994378;28;20491;-70
2023/12/18 12:48:28;;;;;;;21.67;13.20;;;;;;;;;;9987780;28;20046;-71
2023/12/18 12:53:23;;;;;;;17.00;11.20;;;;;;;;;;9988475;28;20042;-71
2023/12/18 12:58:15;;;;;;;17.52;11.88;;;;;;;;;;9995456;28;20081;-70
2023/12/18 13:03:07;;;;;;;16.67;12.23;;;;;;;;;;9990283;28;20039;-70
2023/12/18 13:08:00;;;;;;;17.45;14.02;;;;;;;;;;9991585;28;20053;-70
2023/12/18 13:12:56;;;;;;;24.88;17.17;;;;;;;;;;9986581;28;20084;-70
2023/12/18 13:17:48;;;;;;;17.42;13.07;;;;;;;;;;9986832;28;20094;-70
2023/12/18 13:22:40;;;;;;;14.75;12.55;;;;;;;;;;9995841;28;20525;-70
2023/12/18 13:27:31;;;;;;;15.05;12.13;;;;;;;;;;9988098;28;20046;-71
2023/12/18 13:32:26;;;;;;;18.83;12.63;;;;;;;;;;10004277;28;20497;-70
2023/12/18 13:37:19;;;;;;;14.43;12.07;;;;;;;;;;9994291;28;20473;-70
2023/12/18 13:42:11;;;;;;;20.73;12.60;;;;;;;;;;9989425;28;20852;-70
2023/12/18 13:47:03;;;;;;;20.08;13.65;;;;;;;;;;9984988;28;20461;-70
2023/12/18 13:51:55;;;;;;;20.52;13.93;;;;;;;;;;9988875;28;20509;-70
2023/12/18 13:56:47;;;;;;;19.05;12.85;;;;;;;;;;9989840;28;20054;-70
2023/12/18 14:01:40;;;;;;;22.60;13.93;;;;;;;;;;10004537;28;20057;-71
2023/12/18 14:06:32;;;;;;;17.95;13.77;;;;;;;;;;10000471;28;20042;-71
2023/12/18 14:11:26;;;;;;;16.98;13.32;;;;;;;;;;10008908;28;20130;-70
2023/12/18 14:16:18;;;;;;;28.05;18.48;;;;;;;;;;9998440;28;20137;-71
2023/12/18 14:21:10;;;;;;;18.88;13.57;;;;;;;;;;9999706;28;20092;-71
2023/12/18 14:26:02;;;;;;;13.82;12.20;;;;;;;;;;10000743;28;20468;-70
2023/12/18 14:30:54;;;;;;;18.98;13.20;;;;;;;;;;10015441;28;20462;-71
2023/12/18 14:35:49;;;;;;;21.00;12.63;;;;;;;;;;9996719;28;20054;-70
2023/12/18 14:40:41;;;;;;;19.20;15.57;;;;;;;;;;10000747;28;20127;-71
2023/12/18 14:45:32;;;;;;;24.92;13.80;;;;;;;;;;9994557;28;20038;-71
2023/12/18 14:50:25;;;;;;;18.45;15.07;;;;;;;;;;9996332;28;20037;-71
2023/12/18 14:55:18;;;;;;;20.58;16.23;;;;;;;;;;9999961;28;20113;-71
2023/12/18 15:00:10;;;;;;;20.15;15.18;;;;;;;;;;9994243;28;20069;-72
2023/12/18 15:05:02;;;;;;;23.52;12.95;;;;;;;;;;9995821;28;20077;-72
2023/12/18 15:09:54;;;;;;;27.63;16.38;;;;;;;;;;9989488;28;20433;-72
2023/12/18 15:14:46;;;;;;;22.58;16.50;;;;;;;;;;10001364;28;20339;-72
2023/12/18 15:19:40;;;;;;;19.25;15.65;;;;;;;;;;9988847;28;20054;-72
2023/12/18 15:24:34;;;;;;;27.50;18.67;;;;;;;;;;9992730;28;20050;-73
2023/12/18 15:29:29;;;;;;;21.73;17.42;;;;;;;;;;10005838;28;20050;-70
2023/12/18 15:34:21;;;;;;;25.33;16.67;;;;;;;;;;10025081;28;20054;-71
2023/12/18 15:39:13;;;;;;;23.40;16.48;;;;;;;;;;9996694;28;20473;-72
2023/12/18 15:44:07;;;;;;;27.00;17.42;;;;;;;;;;9990001;28;20108;-72
2023/12/18 15:48:58;;;;;;;25.25;18.65;;;;;;;;;;9987861;28;20073;-72
2023/12/18 15:53:51;;;;;;;25.92;17.20;;;;;;;;;;9999440;28;20118;-72
2023/12/18 15:58:43;;;;;;;22.30;17.77;;;;;;;;;;10011174;28;20042;-73
2023/12/18 16:03:35;;;;;;;23.08;16.88;;;;;;;;;;10004461;28;20051;-72
2023/12/18 16:08:30;;;;;;;21.35;16.20;;;;;;;;;;9988480;28;20129;-72
2023/12/18 16:13:22;;;;;;;22.98;18.27;;;;;;;;;;10001253;28;20484;-72
2023/12/18 16:18:13;;;;;;;26.10;18.95;;;;;;;;;;9995492;28;20100;-72
2023/12/18 16:23:05;;;;;;;29.08;22.02;;;;;;;;;;9992157;28;20038;-72
2023/12/18 16:27:57;;;;;;;37.25;30.92;;;;;;;;;;10006069;28;20049;-72
2023/12/18 16:32:49;;;;;;;40.78;32.10;;;;;;;;;;10003750;28;20042;-73
2023/12/18 16:37:41;;;;;;;38.92;28.40;;;;;;;;;;10000866;28;20333;-72
2023/12/18 16:42:33;;;;;;;36.80;28.13;;;;;;;;;;10012534;28;20089;-70
2023/12/18 16:47:26;;;;;;;53.60;44.33;;;;;;;;;;10003211;28;20038;-68
2023/12/18 16:52:18;;;;;;;157.73;102.95;;;;;;;;;;10013553;28;20065;-70
2023/12/18 16:57:10;;;;;;;72.43;54.25;;;;;;;;;;10021176;28;20100;-68
2023/12/18 17:02:01;;;;;;;32.25;25.65;;;;;;;;;;10022330;28;20038;-68
2023/12/18 17:06:53;;;;;;;35.00;26.60;;;;;;;;;;10017998;28;20072;-68
2023/12/18 17:11:45;;;;;;;33.85;24.33;;;;;;;;;;10019274;28;20042;-70
2023/12/18 17:16:37;;;;;;;23.10;18.52;;;;;;;;;;10017619;28;20176;-68
2023/12/18 17:21:29;;;;;;;27.67;20.33;;;;;;;;;;10021499;28;20088;-70
2023/12/18 17:26:20;;;;;;;25.15;17.88;;;;;;;;;;10023442;28;20045;-70
2023/12/18 17:31:12;;;;;;;18.40;16.02;;;;;;;;;;10022614;28;20056;-68
2023/12/18 17:36:04;;;;;;;44.08;34.47;;;;;;;;;;10024168;28;20093;-68
2023/12/18 17:40:56;;;;;;;69.35;50.22;;;;;;;;;;10030018;28;20054;-70
2023/12/18 17:45:49;;;;;;;20.92;17.50;;;;;;;;;;10030954;28;20358;-68
2023/12/18 17:50:41;;;;;;;20.25;17.73;;;;;;;;;;10029932;28;20120;-68
2023/12/18 17:55:32;;;;;;;22.13;16.02;;;;;;;;;;10030542;28;20133;-68
2023/12/18 18:00:24;;;;;;;29.15;20.50;;;;;;;;;;10029511;28;20444;-68
2023/12/18 18:05:16;;;;;;;27.42;15.90;;;;;;;;;;10030558;28;20050;-68
2023/12/18 18:10:08;;;;;;;22.77;17.30;;;;;;;;;;10030185;28;20046;-69
2023/12/18 18:15:01;;;;;;;14.88;12.55;;;;;;;;;;10029544;28;20046;-70
2023/12/18 18:19:53;;;;;;;97.90;56.70;;;;;;;;;;10029660;28;20061;-70
2023/12/18 18:24:45;;;;;;;34.20;24.52;;;;;;;;;;10041714;28;20041;-70
2023/12/18 18:29:38;;;;;;;16.73;13.65;;;;;;;;;;10031758;28;20453;-70
2023/12/18 18:34:30;;;;;;;22.08;18.50;;;;;;;;;;10029490;28;20133;-70
2023/12/18 18:39:23;;;;;;;26.08;18.95;;;;;;;;;;10029929;28;20069;-70
2023/12/18 18:44:15;;;;;;;16.92;14.15;;;;;;;;;;10029144;28;20065;-70
2023/12/18 18:49:07;;;;;;;18.85;14.45;;;;;;;;;;10028318;28;20049;-70
2023/12/18 18:54:00;;;;;;;24.25;17.23;;;;;;;;;;10028153;28;20140;-70
2023/12/18 18:58:52;;;;;;;28.42;19.80;;;;;;;;;;10028488;28;20428;-70
2023/12/18 19:03:44;;;;;;;34.38;25.38;;;;;;;;;;10027430;28;20495;-70
2023/12/18 19:08:36;;;;;;;25.73;16.77;;;;;;;;;;10027418;28;20045;-70
2023/12/18 19:13:28;;;;;;;34.10;21.05;;;;;;;;;;10027354;28;20054;-70
2023/12/18 19:18:20;;;;;;;28.48;18.10;;;;;;;;;;10027628;28;20042;-70
2023/12/18 19:23:12;;;;;;;24.10;15.05;;;;;;;;;;10027885;28;20053;-70
2023/12/18 19:28:06;;;;;;;17.85;13.48;;;;;;;;;;10027144;28;20046;-70
2023/12/18 19:32:57;;;;;;;27.52;20.25;;;;;;;;;;10037730;28;20041;-70
2023/12/18 19:37:49;;;;;;;29.25;19.73;;;;;;;;;;10025620;28;20115;-70
2023/12/18 19:42:41;;;;;;;22.95;15.60;;;;;;;;;;10026425;28;20476;-70
2023/12/18 19:47:33;;;;;;;24.63;12.93;;;;;;;;;;10026757;28;20042;-70
2023/12/18 19:52:26;;;;;;;16.70;12.43;;;;;;;;;;10026804;28;20053;-70
2023/12/18 19:57:17;;;;;;;14.23;11.55;;;;;;;;;;10025622;28;20048;-70
2023/12/18 20:02:09;;;;;;;15.15;13.38;;;;;;;;;;10031415;28;20045;-70
2023/12/18 20:07:01;;;;;;;20.73;13.73;;;;;;;;;;10025396;28;20045;-70
2023/12/18 20:11:53;;;;;;;14.70;12.15;;;;;;;;;;10025548;28;20112;-71
2023/12/18 20:16:45;;;;;;;20.10;12.40;;;;;;;;;;10025870;28;20472;-70
2023/12/18 20:21:42;;;;;;;14.15;11.88;;;;;;;;;;10025415;28;20048;-70
2023/12/18 20:26:34;;;;;;;14.60;11.55;;;;;;;;;;10024862;28;20045;-70
2023/12/18 20:31:26;;;;;;;15.32;11.73;;;;;;;;;;10036551;28;20045;-70
2023/12/18 20:36:18;;;;;;;18.80;13.27;;;;;;;;;;10026994;28;20042;-70
2023/12/18 20:41:11;;;;;;;16.02;12.38;;;;;;;;;;9998728;28;20050;-70
2023/12/18 20:46:03;;;;;;;16.88;13.27;;;;;;;;;;10015795;28;20034;-70
2023/12/18 20:50:58;;;;;;;13.80;11.20;;;;;;;;;;10023843;28;20461;-70
2023/12/18 20:55:49;;;;;;;17.63;12.52;;;;;;;;;;10024458;28;20038;-70
2023/12/18 21:00:41;;;;;;;12.63;10.15;;;;;;;;;;10028937;28;20049;-70
2023/12/18 21:05:34;;;;;;;10.38;9.23;;;;;;;;;;10024636;28;20053;-70
2023/12/18 21:10:26;;;;;;;10.13;8.07;;;;;;;;;;10021123;28;20038;-70
2023/12/18 21:15:18;;;;;;;10.82;8.38;;;;;;;;;;10017943;28;20045;-70
2023/12/18 21:20:10;;;;;;;7.85;6.97;;;;;;;;;;10018977;28;20049;-70
2023/12/18 21:25:03;;;;;;;8.80;7.25;;;;;;;;;;10018121;28;20262;-70
2023/12/18 21:29:55;;;;;;;13.93;8.68;;;;;;;;;;10018268;28;20042;-70
2023/12/18 21:34:47;;;;;;;9.00;7.25;;;;;;;;;;10015958;28;20046;-69
2023/12/18 21:39:39;;;;;;;14.77;8.27;;;;;;;;;;10010936;28;20152;-70
2023/12/18 21:44:31;;;;;;;10.75;7.80;;;;;;;;;;10001761;28;20050;-70
2023/12/18 21:49:23;;;;;;;12.25;8.93;;;;;;;;;;10001099;28;20049;-70
2023/12/18 21:54:20;;;;;;;18.17;9.20;;;;;;;;;;10020213;28;20056;-70
2023/12/18 21:59:12;;;;;;;10.00;7.43;;;;;;;;;;10022557;28;20093;-70
2023/12/18 22:04:04;;;;;;;7.63;5.05;;;;;;;;;;10027780;28;20134;-70
2023/12/18 22:08:56;;;;;;;4.90;4.25;;;;;;;;;;10022467;28;20142;-70
2023/12/18 22:13:48;;;;;;;11.13;4.53;;;;;;;;;;10022072;28;20050;-70
2023/12/18 22:18:40;;;;;;;6.47;4.72;;;;;;;;;;10005697;28;20108;-70
2023/12/18 22:23:33;;;;;;;6.43;4.10;;;;;;;;;;10021535;28;20091;-70
2023/12/18 22:28:25;;;;;;;7.88;6.25;;;;;;;;;;10009527;28;20085;-71
2023/12/18 22:33:17;;;;;;;8.50;5.53;;;;;;;;;;10026223;28;20049;-70
2023/12/18 22:38:09;;;;;;;6.82;5.20;;;;;;;;;;10022584;28;20056;-70
2023/12/18 22:43:01;;;;;;;6.35;5.07;;;;;;;;;;10019252;28;20141;-70
2023/12/18 22:47:53;;;;;;;4.65;3.83;;;;;;;;;;10022376;28;20389;-70
2023/12/18 22:52:45;;;;;;;7.53;4.10;;;;;;;;;;10022594;28;20073;-71
2023/12/18 22:57:37;;;;;;;9.35;7.10;;;;;;;;;;10022137;28;20480;-70
2023/12/18 23:02:28;;;;;;;11.38;7.50;;;;;;;;;;10027988;28;20056;-70
2023/12/18 23:07:20;;;;;;;12.68;8.60;;;;;;;;;;10014808;28;20042;-70
2023/12/18 23:12:12;;;;;;;14.48;9.23;;;;;;;;;;10026848;28;20088;-70
2023/12/18 23:17:04;;;;;;;26.20;13.43;;;;;;;;;;10026333;28;20100;-71
2023/12/18 23:21:56;;;;;;;10.50;6.35;;;;;;;;;;10027075;28;20215;-71
2023/12/18 23:26:48;;;;;;;6.85;5.10;;;;;;;;;;10021079;28;20042;-70
2023/12/18 23:31:39;;;;;;;8.93;6.68;;;;;;;;;;10020859;28;20053;-70
2023/12/18 23:36:31;;;;;;;6.45;4.78;;;;;;;;;;10019188;28;20468;-70
2023/12/18 23:41:24;;;;;;;5.88;3.97;;;;;;;;;;10021112;28;20045;-70
2023/12/18 23:46:15;;;;;;;4.97;4.13;;;;;;;;;;10023556;28;20389;-70
2023/12/18 23:51:07;;;;;;;4.82;3.50;;;;;;;;;;10025193;28;20412;-70
2023/12/18 23:56:03;;;;;;;3.97;3.40;;;;;;;;;;10022762;28;20468;-70
